Time;durP1;ratioP1;P1;durP2;ratioP2;P2;SDS_P1;SDS_P2;PMS_P1;PMS_P2;Temp;Humidity;BMP_temperature;BMP_pressure;BME280_temperature;BME280_humidity;BME280_pressure;Samples;Min_cycle;Max_cycle;Signal;HPM_P1;HPM_P2
2023/04/03 00:01:33;;;;;;;13.85;8.85;;;;;;;7.03;100.00;99023.85;1702765;83;21820;-84
2023/04/03 00:04:39;;;;;;;20.65;14.60;;;;;;;7.04;100.00;99021.45;1704168;84;21181;-85
2023/04/03 00:07:46;;;;;;;13.22;9.03;;;;;;;7.09;100.00;99019.02;1704023;84;21257;-84
2023/04/03 00:10:53;;;;;;;11.63;7.97;;;;;;;6.96;100.00;99017.45;1705959;84;21799;-84
2023/04/03 00:13:58;;;;;;;11.63;8.65;;;;;;;7.00;100.00;99025.56;1709442;84;21134;-84
2023/04/03 00:17:05;;;;;;;15.03;10.43;;;;;;;7.00;100.00;99015.53;1708452;84;21213;-84
2023/04/03 00:20:12;;;;;;;11.30;9.05;;;;;;;7.02;100.00;99005.86;1709574;84;21240;-84
2023/04/03 00:23:18;;;;;;;14.13;8.85;;;;;;;7.05;100.00;99006.82;1709481;84;21303;-84
2023/04/03 00:26:24;;;;;;;14.60;11.43;;;;;;;7.10;100.00;98996.23;1708292;84;21236;-84
2023/04/03 00:29:31;;;;;;;10.72;7.28;;;;;;;7.13;100.00;98993.16;1708225;84;21256;-84
2023/04/03 00:32:36;;;;;;;14.78;9.08;;;;;;;7.13;100.00;98996.71;1708138;84;21811;-84
2023/04/03 00:35:42;;;;;;;9.83;6.30;;;;;;;7.13;100.00;98989.91;1709712;84;21189;-84
2023/04/03 00:38:49;;;;;;;8.48;4.92;;;;;;;7.16;100.00;98987.35;1709473;83;21229;-84
2023/04/03 00:41:57;;;;;;;25.05;18.70;;;;;;;7.31;100.00;98980.55;1709594;84;21205;-84
2023/04/03 00:45:03;;;;;;;10.35;6.95;;;;;;;7.24;100.00;98979.08;1709401;84;21257;-84
2023/04/03 00:48:12;;;;;;;9.03;7.50;;;;;;;7.27;100.00;98967.84;1709588;84;21181;-84
2023/04/03 00:51:23;;;;;;;12.37;10.28;;;;;;;7.34;100.00;98973.36;1709573;84;21200;-84
2023/04/03 00:54:29;;;;;;;8.03;5.95;;;;;;;7.34;100.00;98970.63;1709087;84;21224;-84
2023/04/03 00:57:34;;;;;;;8.45;5.53;;;;;;;7.33;100.00;98966.23;1708213;84;21260;-84
2023/04/03 01:00:40;;;;;;;11.57;8.13;;;;;;;7.43;100.00;98960.86;1708913;84;21246;-84
2023/04/03 01:03:47;;;;;;;10.03;8.48;;;;;;;7.40;100.00;98954.42;1709112;84;21157;-84
2023/04/03 01:06:53;;;;;;;13.03;9.20;;;;;;;7.60;100.00;98953.83;1707788;84;21249;-84
2023/04/03 01:10:02;;;;;;;9.35;7.25;;;;;;;7.58;100.00;98939.06;1707268;84;21240;-84
2023/04/03 01:13:09;;;;;;;9.15;4.80;;;;;;;7.63;100.00;98942.58;1704111;84;21206;-84
2023/04/03 01:16:16;;;;;;;11.43;7.08;;;;;;;7.69;100.00;98954.89;1703995;84;21518;-84
2023/04/03 01:19:22;;;;;;;9.18;6.50;;;;;;;7.67;100.00;98947.97;1704149;84;21819;-84
2023/04/03 01:22:31;;;;;;;6.87;5.22;;;;;;;7.83;100.00;98939.56;1703903;83;21201;-84
2023/04/03 01:25:37;;;;;;;6.90;5.62;;;;;;;7.66;100.00;98939.45;1703573;84;21177;-84
2023/04/03 01:28:43;;;;;;;8.75;6.03;;;;;;;7.69;100.00;98944.53;1702858;84;21237;-84
2023/04/03 01:32:05;;;;;;;8.78;7.67;;;;;;;7.69;100.00;98937.72;1704101;84;21197;-84
2023/04/03 01:35:11;;;;;;;12.03;9.93;;;;;;;7.69;100.00;98933.64;1704214;84;21145;-84
2023/04/03 01:38:17;;;;;;;10.68;9.18;;;;;;;7.66;100.00;98929.41;1702547;83;21256;-84
2023/04/03 01:41:25;;;;;;;5.67;4.53;;;;;;;7.63;100.00;98926.25;1702980;84;21245;-84
2023/04/03 01:44:37;;;;;;;4.28;3.87;;;;;;;7.52;100.00;98920.77;1702723;84;21281;-84
2023/04/03 01:47:43;;;;;;;6.28;3.80;;;;;;;7.51;100.00;98916.88;1703308;83;21776;-84
2023/04/03 01:50:50;;;;;;;7.00;3.55;;;;;;;7.62;100.00;98917.25;1703973;84;21173;-84
2023/04/03 01:53:56;;;;;;;4.83;3.77;;;;;;;7.49;100.00;98911.64;1704083;84;21249;-84
2023/04/03 01:57:02;;;;;;;7.17;4.60;;;;;;;7.56;100.00;98909.83;1702669;84;21225;-84
2023/04/03 02:00:07;;;;;;;6.15;5.00;;;;;;;7.73;100.00;98915.90;1704028;84;21858;-84
2023/04/03 02:03:13;;;;;;;9.10;7.03;;;;;;;7.71;100.00;98908.94;1702865;83;21205;-84
2023/04/03 02:06:12;;;;;;;7.53;5.75;;;;;;;7.56;100.00;98907.11;1703899;84;21755;-84
2023/04/03 02:09:19;;;;;;;9.43;7.03;;;;;;;7.58;100.00;98905.58;1702816;84;21233;-84
2023/04/03 02:12:25;;;;;;;13.00;7.78;;;;;;;7.81;100.00;98906.75;1701684;83;21220;-84
2023/04/03 02:15:31;;;;;;;17.95;10.13;;;;;;;7.63;100.00;98902.59;1704062;84;21277;-84
2023/04/03 02:18:38;;;;;;;16.93;11.53;;;;;;;7.57;100.00;98899.78;1703469;83;21212;-84
2023/04/03 02:21:44;;;;;;;19.80;13.62;;;;;;;7.72;100.00;98899.25;1704261;84;21261;-84
2023/04/03 02:24:51;;;;;;;23.87;13.25;;;;;;;7.64;100.00;98897.47;1702759;83;21824;-84
2023/04/03 02:28:04;;;;;;;25.08;14.83;;;;;;;7.62;100.00;98902.77;1709706;84;21238;-83
2023/04/03 02:30:58;;;;;;;38.88;19.05;;;;;;;7.53;100.00;98895.75;1748962;82;21187;-83
2023/04/03 02:34:05;;;;;;;43.33;25.80;;;;;;;7.56;100.00;98889.94;1711112;84;21164;-84
2023/04/03 02:37:13;;;;;;;53.50;29.40;;;;;;;7.58;100.00;98894.17;1711184;84;21193;-84
2023/04/03 02:40:19;;;;;;;44.98;25.27;;;;;;;7.69;100.00;98890.94;1709618;84;21762;-84
2023/04/03 02:43:24;;;;;;;33.30;18.75;;;;;;;7.78;100.00;98891.66;1709853;84;21810;-84
2023/04/03 02:46:29;;;;;;;21.12;12.88;;;;;;;7.81;100.00;98879.53;1709779;84;21574;-84
2023/04/03 02:49:34;;;;;;;15.20;10.15;;;;;;;7.82;100.00;98888.89;1710008;84;21235;-84
2023/04/03 02:52:39;;;;;;;10.32;8.10;;;;;;;7.71;100.00;98888.53;1711069;84;21553;-84
2023/04/03 02:55:40;;;;;;;13.00;6.92;;;;;;;7.66;100.00;98883.66;1711326;84;21742;-84
2023/04/03 02:58:46;;;;;;;8.03;6.08;;;;;;;7.52;100.00;98884.55;1710639;84;21203;-84
2023/04/03 03:01:47;;;;;;;12.07;7.03;;;;;;;7.50;100.00;98881.19;1711092;84;21203;-84
2023/04/03 03:04:52;;;;;;;30.25;14.78;;;;;;;7.52;100.00;98889.99;1711016;84;21188;-84
2023/04/03 03:07:59;;;;;;;14.98;9.25;;;;;;;7.57;100.00;98871.20;1709628;84;21195;-84
2023/04/03 03:11:05;;;;;;;11.57;7.87;;;;;;;7.81;100.00;98876.31;1720024;82;21268;-84
2023/04/03 03:14:10;;;;;;;15.60;8.43;;;;;;;7.55;100.00;98875.49;1738978;82;21235;-84
2023/04/03 03:17:16;;;;;;;13.18;8.48;;;;;;;7.53;100.00;98874.86;1740535;82;21152;-84
2023/04/03 03:20:22;;;;;;;16.70;10.20;;;;;;;7.58;100.00;98877.84;1740467;82;21253;-84
2023/04/03 03:23:28;;;;;;;20.75;12.43;;;;;;;7.65;100.00;98871.09;1740629;82;21234;-85
2023/04/03 03:26:27;;;;;;;23.98;14.25;;;;;;;7.53;100.00;98861.73;1740677;82;21523;-85
2023/04/03 03:29:34;;;;;;;31.25;19.02;;;;;;;7.53;100.00;98860.38;1730211;83;21216;-85
2023/04/03 03:32:40;;;;;;;28.17;16.12;;;;;;;7.56;100.00;98862.73;1729799;83;21192;-85
2023/04/03 03:35:45;;;;;;;32.88;20.55;;;;;;;7.58;100.00;98853.35;1730137;83;21208;-86
2023/04/03 03:38:51;;;;;;;32.85;18.30;;;;;;;7.60;100.00;98857.23;1729884;83;21838;-85
2023/04/03 03:41:57;;;;;;;31.50;17.42;;;;;;;7.55;100.00;98855.61;1729890;83;21766;-84
2023/04/03 03:45:03;;;;;;;27.52;16.30;;;;;;;7.62;100.00;98860.59;1730187;83;21533;-84
2023/04/03 03:48:09;;;;;;;24.50;13.70;;;;;;;7.66;100.00;98859.17;1729885;83;21209;-84
2023/04/03 03:51:14;;;;;;;27.70;15.25;;;;;;;7.63;100.00;98852.77;1729816;83;21200;-84
2023/04/03 03:54:21;;;;;;;31.60;16.87;;;;;;;7.67;100.00;98856.28;1729722;82;21248;-84
2023/04/03 03:57:28;;;;;;;30.72;15.88;;;;;;;7.66;100.00;98852.37;1729327;83;21228;-84
2023/04/03 04:00:34;;;;;;;25.37;15.95;;;;;;;7.73;100.00;98856.02;1728227;82;21422;-84
2023/04/03 04:03:41;;;;;;;21.75;13.28;;;;;;;7.80;100.00;98851.98;1727978;82;21220;-84
2023/04/03 04:06:48;;;;;;;23.40;14.18;;;;;;;7.75;100.00;98853.09;1729613;83;21252;-84
2023/04/03 04:09:55;;;;;;;31.75;18.15;;;;;;;7.65;100.00;98845.25;1728636;82;21846;-84
2023/04/03 04:13:00;;;;;;;30.12;16.87;;;;;;;7.74;100.00;98853.61;1729781;83;21270;-83
2023/04/03 04:16:06;;;;;;;22.77;13.62;;;;;;;7.65;100.00;98846.61;1730166;83;21188;-84
2023/04/03 04:19:12;;;;;;;19.12;11.65;;;;;;;7.60;100.00;98835.46;1730271;83;21192;-84
2023/04/03 04:22:18;;;;;;;20.45;12.95;;;;;;;7.64;100.00;98847.66;1730015;83;21192;-84
2023/04/03 04:25:17;;;;;;;23.07;13.80;;;;;;;7.74;100.00;98845.97;1730207;83;21165;-84
2023/04/03 04:28:11;;;;;;;27.70;13.35;;;;;;;7.76;100.00;98841.16;1729151;82;21259;-84
2023/04/03 04:31:20;;;;;;;24.43;12.85;;;;;;;7.81;100.00;98838.20;1738309;82;21270;-84
2023/04/03 04:34:27;;;;;;;29.05;16.42;;;;;;;7.84;100.00;98833.72;1740621;82;21191;-84
2023/04/03 04:37:34;;;;;;;21.25;13.83;;;;;;;7.77;100.00;98842.34;1740555;82;21184;-85
2023/04/03 04:40:40;;;;;;;18.12;11.18;;;;;;;7.84;100.00;98833.72;1739658;82;21168;-84
2023/04/03 04:43:47;;;;;;;15.10;9.03;;;;;;;7.91;100.00;98834.64;1740071;82;21996;-84
2023/04/03 04:46:53;;;;;;;14.28;8.83;;;;;;;7.99;100.00;98838.25;1739218;82;21196;-84
2023/04/03 04:49:59;;;;;;;18.02;10.13;;;;;;;8.05;100.00;98834.77;1740333;82;21283;-84
2023/04/03 04:53:05;;;;;;;18.90;12.28;;;;;;;7.97;100.00;98836.25;1740553;82;21244;-84
2023/04/03 04:56:10;;;;;;;15.58;9.68;;;;;;;8.09;100.00;98831.45;1740618;82;21184;-84
2023/04/03 04:59:17;;;;;;;12.13;9.08;;;;;;;8.00;100.00;98833.12;1739230;82;21270;-84
2023/04/03 05:02:23;;;;;;;11.85;8.15;;;;;;;8.07;100.00;98829.42;1713099;82;21195;-84
2023/04/03 05:05:30;;;;;;;8.15;6.53;;;;;;;8.38;100.00;98828.25;1713136;82;21191;-84
2023/04/03 05:08:38;;;;;;;9.65;7.35;;;;;;;8.06;100.00;98829.63;1721430;81;21188;-84
2023/04/03 05:11:44;;;;;;;14.07;8.53;;;;;;;8.00;100.00;98831.75;1718497;81;21215;-85
2023/04/03 05:14:52;;;;;;;16.55;10.40;;;;;;;7.91;100.00;98829.19;1691831;84;21237;-83
2023/04/03 05:17:58;;;;;;;16.45;10.13;;;;;;;7.96;100.00;98831.85;1758929;81;21173;-84
2023/04/03 05:21:04;;;;;;;14.35;9.58;;;;;;;7.94;100.00;98831.50;1727719;81;21261;-84
2023/04/03 05:24:11;;;;;;;16.20;10.55;;;;;;;8.02;100.00;98828.34;1737711;81;21198;-84
2023/04/03 05:27:19;;;;;;;23.27;13.03;;;;;;;8.17;100.00;98829.09;1714437;82;21223;-85
2023/04/03 05:30:25;;;;;;;26.05;14.63;;;;;;;8.03;100.00;98834.94;1717725;81;21816;-84
2023/04/03 05:33:33;;;;;;;29.25;16.27;;;;;;;8.04;100.00;98835.25;1734255;82;22075;-84
2023/04/03 05:36:41;;;;;;;27.90;16.07;;;;;;;8.11;100.00;98836.17;1720264;81;21283;-83
2023/04/03 05:39:46;;;;;;;30.23;17.15;;;;;;;8.27;100.00;98836.39;1726919;81;21178;-84
2023/04/03 05:42:53;;;;;;;27.75;15.63;;;;;;;8.31;100.00;98835.48;1727654;81;21180;-83
2023/04/03 05:46:01;;;;;;;24.98;15.15;;;;;;;8.28;100.00;98838.59;1719130;82;21214;-84
2023/04/03 05:49:00;;;;;;;31.05;18.02;;;;;;;8.32;100.00;98841.25;1720285;81;21198;-84
2023/04/03 05:52:07;;;;;;;33.60;17.90;;;;;;;8.38;100.00;98844.08;1727264;82;21193;-84
2023/04/03 05:55:14;;;;;;;33.58;18.48;;;;;;;8.49;100.00;98845.93;1731886;81;21138;-84
2023/04/03 05:58:21;;;;;;;34.25;18.40;;;;;;;8.53;100.00;98852.15;1724715;81;21235;-84
2023/04/03 06:01:27;;;;;;;34.98;17.90;;;;;;;8.48;100.00;98851.06;1705116;82;21402;-84
2023/04/03 06:04:33;;;;;;;18.05;9.58;;;;;;;8.50;100.00;98847.61;1713220;82;21188;-84
2023/04/03 06:07:39;;;;;;;8.78;5.75;;;;;;;8.60;100.00;98850.82;1693290;84;21182;-84
2023/04/03 06:10:46;;;;;;;5.20;4.30;;;;;;;8.64;100.00;98856.20;1652714;85;21299;-84
2023/04/03 06:13:46;;;;;;;4.28;3.45;;;;;;;8.73;100.00;98854.17;1686787;85;21210;-83
2023/04/03 06:16:51;;;;;;;5.78;3.35;;;;;;;8.84;100.00;98854.44;1727830;81;21239;-84
2023/04/03 06:19:58;;;;;;;3.40;3.08;;;;;;;8.67;100.00;98859.91;1712140;83;22095;-84
2023/04/03 06:23:02;;;;;;;6.30;3.27;;;;;;;8.77;100.00;98860.91;1709419;82;21216;-84
2023/04/03 06:26:08;;;;;;;3.67;3.10;;;;;;;8.77;100.00;98856.30;1712370;83;21191;-85
2023/04/03 06:29:13;;;;;;;4.80;3.62;;;;;;;8.84;100.00;98856.33;1712543;83;21325;-84
2023/04/03 06:32:19;;;;;;;4.28;3.85;;;;;;;8.91;100.00;98859.42;1712425;81;21831;-84
2023/04/03 06:35:26;;;;;;;5.65;4.10;;;;;;;9.00;100.00;98863.36;1725766;83;21172;-84
2023/04/03 06:38:33;;;;;;;7.65;3.95;;;;;;;9.13;100.00;98864.80;1709850;83;21208;-84
2023/04/03 06:41:38;;;;;;;5.08;4.10;;;;;;;9.10;100.00;98866.03;1722471;83;21207;-84
2023/04/03 06:44:46;;;;;;;8.68;4.58;;;;;;;9.18;100.00;98869.12;1753566;81;21274;-84
2023/04/03 06:47:53;;;;;;;5.03;4.25;;;;;;;9.12;100.00;98867.18;1725072;81;21188;-84
2023/04/03 06:51:00;;;;;;;5.30;3.90;;;;;;;9.36;100.00;98876.73;1713925;83;21200;-84
2023/04/03 06:54:06;;;;;;;10.03;4.35;;;;;;;9.17;100.00;98872.37;1704328;81;21210;-85
2023/04/03 06:57:05;;;;;;;8.00;3.80;;;;;;;9.26;100.00;98877.64;1718821;83;21208;-84
2023/04/03 07:00:11;;;;;;;9.83;3.60;;;;;;;9.25;100.00;98877.33;1709751;81;21828;-84
2023/04/03 07:03:19;;;;;;;16.80;4.10;;;;;;;9.42;100.00;98882.23;1712730;81;21264;-84
2023/04/03 07:06:33;;;;;;;19.00;4.67;;;;;;;9.38;100.00;98881.48;1705575;82;21176;-86
2023/04/03 07:09:40;;;;;;;16.10;4.78;;;;;;;9.51;100.00;98887.53;1730856;81;21191;-86
2023/04/03 07:12:46;;;;;;;13.48;5.20;;;;;;;9.45;100.00;98887.80;1711106;82;21225;-79
2023/04/03 07:15:51;;;;;;;13.03;5.75;;;;;;;9.52;100.00;98887.84;1708142;84;21254;-80
2023/04/03 07:18:57;;;;;;;29.15;5.08;;;;;;;9.48;100.00;98893.70;1710580;82;21184;-88
2023/04/03 07:22:03;;;;;;;28.77;6.97;;;;;;;9.56;100.00;98894.58;1706230;83;21733;-83
2023/04/03 07:25:10;;;;;;;13.68;7.30;;;;;;;9.55;100.00;98892.88;1705447;83;21473;-79
2023/04/03 07:28:10;;;;;;;11.30;7.67;;;;;;;9.65;100.00;98903.75;1707720;82;21133;-86
2023/04/03 07:31:19;;;;;;;12.50;7.22;;;;;;;9.65;100.00;98902.91;1702661;82;21185;-80
2023/04/03 07:34:25;;;;;;;10.65;6.90;;;;;;;9.66;100.00;98907.32;1703682;83;21788;-80
2023/04/03 07:37:32;;;;;;;10.55;6.95;;;;;;;9.74;100.00;98903.05;1702836;83;21183;-81
2023/04/03 07:40:38;;;;;;;9.55;7.00;;;;;;;9.59;100.00;98905.91;1705967;82;21197;-80
2023/04/03 07:43:44;;;;;;;9.65;6.53;;;;;;;9.50;100.00;98911.75;1706045;83;21697;-80
2023/04/03 07:46:50;;;;;;;7.78;5.50;;;;;;;9.55;100.00;98917.44;1706343;83;21669;-80
2023/04/03 07:49:57;;;;;;;8.30;5.55;;;;;;;9.54;100.00;98919.86;1696865;82;21705;-80
2023/04/03 07:53:03;;;;;;;7.78;5.35;;;;;;;9.60;100.00;98917.70;1701874;82;21168;-81
2023/04/03 07:56:09;;;;;;;7.60;5.67;;;;;;;9.61;100.00;98926.20;1710085;82;21183;-88
2023/04/03 07:59:14;;;;;;;9.08;5.92;;;;;;;9.73;100.00;98931.38;1684432;83;21212;-82
2023/04/03 08:02:20;;;;;;;6.25;4.80;;;;;;;9.83;100.00;98938.66;1709741;82;21145;-80
2023/04/03 08:05:27;;;;;;;6.65;5.15;;;;;;;9.87;100.00;98941.30;1697344;82;21241;-89
2023/04/03 08:08:36;;;;;;;6.50;4.72;;;;;;;9.95;100.00;98943.02;1722084;82;21703;-89
2023/04/03 08:11:40;;;;;;;5.85;4.60;;;;;;;10.02;100.00;98952.58;1722487;83;21184;-87
2023/04/03 08:14:46;;;;;;;5.15;3.67;;;;;;;10.10;100.00;98953.77;1722179;83;21246;-89
2023/04/03 08:17:45;;;;;;;4.47;3.30;;;;;;;10.17;100.00;98954.64;1719874;82;21742;-80
2023/04/03 08:20:51;;;;;;;3.47;2.77;;;;;;;10.28;100.00;98951.33;1722397;83;21183;-80
2023/04/03 08:23:57;;;;;;;3.80;2.60;;;;;;;10.41;100.00;98961.45;1713957;82;21731;-89
2023/04/03 08:27:01;;;;;;;3.67;2.42;;;;;;;10.37;100.00;98959.65;1715809;83;21156;-89
2023/04/03 08:30:06;;;;;;;2.65;2.22;;;;;;;10.29;100.00;98967.20;1713301;82;21482;-89
2023/04/03 08:33:12;;;;;;;2.33;2.10;;;;;;;10.30;100.00;98970.23;1715441;82;21172;-90
2023/04/03 08:36:26;;;;;;;2.05;1.77;;;;;;;10.29;100.00;98978.97;1717659;83;21176;-81
2023/04/03 08:39:31;;;;;;;2.72;1.70;;;;;;;10.19;100.00;98978.49;1715096;82;21627;-89
2023/04/03 08:43:28;;;;;;;2.02;1.80;;;;;;;10.26;100.00;98979.89;1711843;83;21228;-89
2023/04/03 08:46:48;;;;;;;1.37;1.10;;;;;;;10.39;100.00;98984.03;1710577;82;21206;-89
2023/04/03 08:50:07;;;;;;;2.87;1.70;;;;;;;10.44;100.00;98991.95;1692677;83;21779;-80
2023/04/03 08:53:13;;;;;;;2.67;1.92;;;;;;;10.40;100.00;98990.67;1718651;82;21773;-89
2023/04/03 08:56:19;;;;;;;2.58;1.72;;;;;;;10.50;100.00;99001.20;1694147;83;21199;-83
2023/04/03 08:59:29;;;;;;;1.92;1.42;;;;;;;10.59;100.00;98997.75;1720737;82;21195;-89
2023/04/03 09:02:42;;;;;;;1.75;1.45;;;;;;;10.56;100.00;99007.73;1712322;83;21168;-89
2023/04/03 09:06:13;;;;;;;1.82;1.57;;;;;;;10.58;100.00;99014.66;1722196;83;21196;-89
2023/04/03 09:09:40;;;;;;;3.52;1.40;;;;;;;10.62;100.00;99023.30;1678628;83;21756;-89
2023/04/03 09:12:51;;;;;;;1.25;1.15;;;;;;;10.59;100.00;99027.84;1668615;85;21153;-80
2023/04/03 09:15:58;;;;;;;1.65;1.37;;;;;;;10.72;100.00;99030.56;1668560;84;21211;-80
2023/04/03 09:19:30;;;;;;;1.57;1.37;;;;;;;10.83;100.00;99031.33;1670848;84;21177;-80
2023/04/03 09:22:39;;;;;;;2.72;1.35;;;;;;;11.12;100.00;99027.87;1673019;85;21251;-79
2023/04/03 09:25:47;;;;;;;3.30;1.70;;;;;;;11.18;100.00;99034.69;1668907;83;21217;-81
2023/04/03 09:28:49;;;;;;;4.45;2.30;;;;;;;11.22;100.00;99043.33;1672945;85;21240;-81
2023/04/03 09:31:55;;;;;;;6.55;3.20;;;;;;;11.07;100.00;99056.39;1672281;85;21169;-89
2023/04/03 09:35:03;;;;;;;3.87;3.05;;;;;;;11.04;100.00;99057.64;1669469;84;21236;-81
2023/04/03 09:38:19;;;;;;;3.75;2.72;;;;;;;10.72;100.00;99063.38;1637674;86;21161;-82
2023/04/03 09:41:25;;;;;;;5.53;4.17;;;;;;;10.65;100.00;99070.22;1674716;83;21738;-88
2023/04/03 09:44:32;;;;;;;5.72;3.67;;;;;;;10.47;100.00;99073.53;1673827;84;21732;-90
2023/04/03 09:47:44;;;;;;;5.30;4.00;;;;;;;10.26;100.00;99077.78;1666917;85;21245;-80
2023/04/03 09:51:09;;;;;;;9.18;4.60;;;;;;;10.25;100.00;99085.64;1671722;85;21236;-80
2023/04/03 09:54:40;;;;;;;7.62;4.85;;;;;;;10.03;100.00;99090.88;1681221;83;21214;-89
2023/04/03 09:57:48;;;;;;;7.33;5.25;;;;;;;9.82;100.00;99099.47;1657555;86;21809;-80
2023/04/03 10:01:03;;;;;;;10.08;4.97;;;;;;;9.68;100.00;99097.17;1680895;82;21230;-80
2023/04/03 10:04:25;;;;;;;5.78;4.33;;;;;;;9.67;100.00;99109.14;1656034;83;21866;-79
2023/04/03 10:07:43;;;;;;;6.28;4.42;;;;;;;9.54;100.00;99111.78;1671519;82;21227;-79
2023/04/03 10:10:54;;;;;;;4.53;3.47;;;;;;;9.53;100.00;99116.08;1671941;84;21222;-88
2023/04/03 10:14:09;;;;;;;5.28;3.00;;;;;;;9.56;100.00;99116.53;1716629;82;21192;-79
2023/04/03 10:17:27;;;;;;;5.10;3.70;;;;;;;9.57;100.00;99122.84;1704981;82;21148;-89
2023/04/03 10:20:46;;;;;;;4.67;3.77;;;;;;;9.56;100.00;99126.09;1706663;82;21202;-79
2023/04/03 10:23:57;;;;;;;5.35;4.53;;;;;;;9.71;100.00;99130.08;1701084;82;21774;-79
2023/04/03 10:27:19;;;;;;;7.22;5.37;;;;;;;9.72;100.00;99141.31;1659703;84;21293;-89
2023/04/03 10:30:35;;;;;;;7.10;5.22;;;;;;;9.78;100.00;99145.97;1672897;84;21209;-89
2023/04/03 10:33:59;;;;;;;10.40;6.42;;;;;;;9.74;100.00;99151.53;1693935;84;21795;-89
2023/04/03 10:37:28;;;;;;;8.75;7.22;;;;;;;9.71;100.00;99160.11;1671431;84;21199;-80
2023/04/03 10:41:09;;;;;;;14.23;7.67;;;;;;;9.57;100.00;99169.24;1638313;85;21230;-80
2023/04/03 10:44:45;;;;;;;10.35;7.28;;;;;;;9.54;100.00;99174.56;1642136;85;21247;-80
2023/04/03 10:48:38;;;;;;;8.58;6.92;;;;;;;9.61;100.00;99182.30;1708893;84;21701;-90
2023/04/03 10:52:04;;;;;;;8.78;6.75;;;;;;;9.79;100.00;99179.61;1678296;84;21189;-90
2023/04/03 10:55:34;;;;;;;11.57;7.42;;;;;;;9.85;100.00;99187.84;1668251;84;21223;-80
2023/04/03 10:58:48;;;;;;;9.28;7.70;;;;;;;9.99;100.00;99184.69;1651508;87;21184;-90
2023/04/03 11:02:00;;;;;;;10.63;8.00;;;;;;;10.02;100.00;99191.62;1677066;85;21201;-80
2023/04/03 11:05:26;;;;;;;11.93;7.95;;;;;;;10.08;100.00;99193.58;1671072;84;21521;-89
2023/04/03 11:09:07;;;;;;;11.70;8.15;;;;;;;10.03;100.00;99195.53;1662298;84;21177;-79
2023/04/03 11:12:43;;;;;;;12.70;9.40;;;;;;;10.10;100.00;99199.14;1667661;86;21179;-80
2023/04/03 11:15:49;;;;;;;17.48;11.20;;;;;;;10.02;100.00;99201.18;1571739;91;21727;-79
2023/04/03 11:19:11;;;;;;;15.63;11.93;;;;;;;10.00;100.00;99206.85;1541639;92;21234;-89
2023/04/03 11:22:26;;;;;;;19.67;12.25;;;;;;;9.97;100.00;99204.02;1640935;87;21163;-80
2023/04/03 11:25:33;;;;;;;18.65;13.45;;;;;;;9.98;100.00;99214.42;1665823;85;21172;-89
2023/04/03 11:28:44;;;;;;;20.32;14.63;;;;;;;10.07;100.00;99213.72;1658443;86;21152;-89
2023/04/03 11:32:11;;;;;;;23.77;16.15;;;;;;;10.25;100.00;99215.45;1654889;86;21204;-90
2023/04/03 11:35:19;;;;;;;25.85;15.63;;;;;;;10.32;100.00;99219.61;1657907;86;21252;-80
2023/04/03 11:38:42;;;;;;;25.23;17.10;;;;;;;10.54;100.00;99220.34;1663231;85;21199;-80
2023/04/03 11:41:47;;;;;;;21.55;15.75;;;;;;;10.60;100.00;99226.39;1659639;86;21205;-80
2023/04/03 11:44:55;;;;;;;22.35;15.18;;;;;;;10.66;100.00;99229.67;1647648;85;21190;-90
2023/04/03 11:48:12;;;;;;;23.18;16.37;;;;;;;10.81;100.00;99233.09;1650016;85;21175;-91
2023/04/03 11:51:37;;;;;;;27.62;17.75;;;;;;;10.97;100.00;99232.75;1652012;85;21170;-80
2023/04/03 11:54:54;;;;;;;23.05;15.98;;;;;;;10.99;100.00;99240.22;1647771;86;21156;-80
2023/04/03 11:58:12;;;;;;;25.32;17.87;;;;;;;11.05;100.00;99239.08;1666841;84;21213;-89
2023/04/03 12:01:18;;;;;;;29.77;20.43;;;;;;;10.95;100.00;99250.41;1660762;85;21176;-90
2023/04/03 12:04:26;;;;;;;38.85;21.62;;;;;;;10.92;100.00;99251.68;1663361;84;21211;-80
2023/04/03 12:07:32;;;;;;;33.08;21.70;;;;;;;10.89;100.00;99249.87;1661990;86;21192;-80
2023/04/03 12:10:39;;;;;;;36.55;23.12;;;;;;;10.93;100.00;99253.89;1691677;83;21785;-80
2023/04/03 12:13:48;;;;;;;36.80;23.90;;;;;;;10.89;100.00;99252.08;1719816;83;21199;-79
2023/04/03 12:16:57;;;;;;;34.53;23.10;;;;;;;10.86;100.00;99264.78;1709164;83;21263;-90
2023/04/03 12:20:03;;;;;;;38.17;23.00;;;;;;;10.81;100.00;99261.81;1715798;83;21647;-90
2023/04/03 12:23:43;;;;;;;44.73;22.05;;;;;;;10.73;100.00;99274.31;1699865;83;21166;-90
2023/04/03 12:27:06;;;;;;;40.35;23.62;;;;;;;10.70;100.00;99271.98;1718534;83;21128;-80
2023/04/03 12:30:26;;;;;;;41.40;25.15;;;;;;;10.76;100.00;99276.63;1714802;83;21223;-91
2023/04/03 12:33:57;;;;;;;43.50;24.72;;;;;;;10.63;100.00;99277.92;1715943;83;21161;-79
2023/04/03 12:37:16;;;;;;;41.60;22.48;;;;;;;10.60;100.00;99272.34;1718779;83;21445;-81
2023/04/03 12:41:05;;;;;;;27.87;18.35;;;;;;;10.55;100.00;99272.11;1714255;82;21164;-90
2023/04/03 12:44:48;;;;;;;28.87;18.20;;;;;;;10.58;100.00;99283.15;1708765;83;21216;-79
2023/04/03 12:47:58;;;;;;;23.60;15.18;;;;;;;10.59;100.00;99282.13;1667197;84;21167;-80
2023/04/03 12:51:03;;;;;;;19.80;12.80;;;;;;;10.57;100.00;99280.09;1723189;83;21219;-79
2023/04/03 12:54:22;;;;;;;22.00;15.10;;;;;;;10.68;100.00;99289.09;1701613;84;21771;-80
2023/04/03 12:57:35;;;;;;;22.93;15.18;;;;;;;10.77;100.00;99289.25;1698793;84;21220;-89
2023/04/03 13:00:42;;;;;;;26.85;15.95;;;;;;;10.82;100.00;99298.22;1668781;86;21278;-90
2023/04/03 13:03:51;;;;;;;28.00;15.43;;;;;;;10.85;100.00;99283.62;1670062;86;21242;-88
2023/04/03 13:06:58;;;;;;;24.72;15.48;;;;;;;10.83;100.00;99292.56;1669922;86;21219;-78
2023/04/03 13:10:10;;;;;;;19.98;13.60;;;;;;;10.71;100.00;99296.38;1681883;85;21238;-89
2023/04/03 13:13:18;;;;;;;17.87;13.72;;;;;;;10.83;100.00;99302.67;1697545;84;21177;-89
2023/04/03 13:16:24;;;;;;;20.75;13.20;;;;;;;10.90;100.00;99307.63;1718496;82;21176;-89
2023/04/03 13:19:32;;;;;;;16.02;11.63;;;;;;;11.14;100.00;99314.48;1686428;85;21257;-89
2023/04/03 13:22:43;;;;;;;15.72;11.00;;;;;;;11.20;100.00;99319.16;1671093;86;21222;-79
2023/04/03 13:25:50;;;;;;;18.32;11.97;;;;;;;11.25;100.00;99323.49;1668908;84;21231;-79
2023/04/03 13:28:55;;;;;;;12.10;9.88;;;;;;;11.28;100.00;99329.91;1668958;84;21261;-89
2023/04/03 13:32:02;;;;;;;11.63;9.53;;;;;;;11.32;100.00;99331.19;1641592;87;21751;-89
2023/04/03 13:35:07;;;;;;;11.22;9.35;;;;;;;11.30;100.00;99330.56;1652008;86;21195;-82
2023/04/03 13:38:36;;;;;;;13.08;10.35;;;;;;;11.28;100.00;99334.01;1669344;86;21219;-79
2023/04/03 13:41:45;;;;;;;12.55;10.00;;;;;;;11.21;100.00;99337.26;1669375;86;21229;-79
2023/04/03 13:44:45;;;;;;;12.13;10.00;;;;;;;11.17;100.00;99340.08;1670667;84;21182;-90
2023/04/03 13:47:51;;;;;;;14.33;10.95;;;;;;;11.11;100.00;99343.64;1670339;86;21541;-90
2023/04/03 13:51:08;;;;;;;12.15;10.43;;;;;;;11.03;100.00;99339.70;1670274;84;21249;-90
2023/04/03 13:54:29;;;;;;;14.90;11.08;;;;;;;11.05;100.00;99347.16;1670840;84;21202;-79
2023/04/03 13:57:36;;;;;;;16.48;11.60;;;;;;;10.93;100.00;99349.12;1679479;84;21257;-90
2023/04/03 14:00:55;;;;;;;12.75;9.70;;;;;;;10.84;100.00;99351.70;1701733;83;21809;-80
2023/04/03 14:04:06;;;;;;;;;;;;;;;10.80;100.00;99357.24;1703856;83;21261;-80
2023/04/03 14:07:12;;;;;;;13.10;10.05;;;;;;;10.70;100.00;99361.70;1703396;84;20205;-80
2023/04/03 14:10:18;;;;;;;12.85;9.38;;;;;;;10.69;100.00;99361.91;1703332;83;21212;-87
2023/04/03 14:13:25;;;;;;;12.15;8.85;;;;;;;10.55;100.00;99364.23;1696391;83;21221;-90
2023/04/03 14:16:34;;;;;;;11.57;8.90;;;;;;;10.54;100.00;99361.15;1746899;82;21184;-91
2023/04/03 14:19:41;;;;;;;10.85;7.78;;;;;;;10.53;100.00;99360.84;1677855;83;21169;-80
2023/04/03 14:22:48;;;;;;;10.50;8.70;;;;;;;10.45;100.00;99362.69;1748296;82;21141;-80
2023/04/03 14:25:55;;;;;;;12.15;9.18;;;;;;;10.45;100.00;99370.05;1747014;81;21180;-89
2023/04/03 14:29:20;;;;;;;13.53;9.08;;;;;;;10.48;100.00;99373.20;1749313;81;21192;-80
2023/04/03 14:32:27;;;;;;;12.43;9.80;;;;;;;10.48;100.00;99371.84;1748391;82;21701;-79
2023/04/03 14:35:33;;;;;;;13.38;9.73;;;;;;;10.49;100.00;99377.66;1748417;81;21231;-80
2023/04/03 14:38:38;;;;;;;14.80;10.55;;;;;;;10.49;100.00;99378.16;1746805;82;22178;-90